KOPL/OPL METAR and TAF weather

Enter ICAO airport designator
Station Type Date Time Source
KOPL METAR 2022/01/25 04:15 UTC NOAA

KOPL 250415Z AUTO 06004KT 5SM RA OVC006 07/07 A2992 RMK AO2 P0004 T00720067


Station Type Date Time Source
KOPL Decoded METAR 2022/01/25 04:15 UTC NOAA

Station name not available
Jan 24, 2022 - 11:15 PM EST / 2022.01.25 0415 UTC
Wind: from the ENE (060 degrees) at 5 MPH (4 KT):0
Visibility: 5 mile(s):0
Sky conditions: overcast
Weather: rain
Precipitation last hour: 0.04 inches
Temperature: 45.0 F (7.2 C)
Dew Point: 44.1 F (6.7 C)
Relative Humidity: 96%
Pressure (altimeter): 29.92 in. Hg (1013 hPa)
ob: KOPL 250415Z AUTO 06004KT 5SM RA OVC006 07/07 A2992 RMK AO2 P0004 T00720067
cycle: 4

Station Type Date Time Source
KOPL TAF UTC NOAA

Error!

Example: see airport list